sensor_id;sensor_type;location;lat;lon;timestamp;P1;durP1;ratioP1;P2;durP2;ratioP2
7338;SDS011;33747;49.524;8.390;2024-01-11T00:01:14;61.75;;;25.10;;
7338;SDS011;33747;49.524;8.390;2024-01-11T00:03:39;54.90;;;23.00;;
7338;SDS011;33747;49.524;8.390;2024-01-11T00:06:05;57.92;;;24.75;;
7338;SDS011;33747;49.524;8.390;2024-01-11T00:08:30;61.33;;;23.05;;
7338;SDS011;33747;49.524;8.390;2024-01-11T00:10:56;54.72;;;23.50;;
7338;SDS011;33747;49.524;8.390;2024-01-11T00:13:21;54.08;;;24.65;;
7338;SDS011;33747;49.524;8.390;2024-01-11T00:15:46;57.40;;;23.85;;
7338;SDS011;33747;49.524;8.390;2024-01-11T00:18:12;58.72;;;25.30;;
7338;SDS011;33747;49.524;8.390;2024-01-11T00:20:37;57.65;;;24.27;;
7338;SDS011;33747;49.524;8.390;2024-01-11T00:23:03;58.00;;;26.05;;
7338;SDS011;33747;49.524;8.390;2024-01-11T00:25:28;59.08;;;23.63;;
7338;SDS011;33747;49.524;8.390;2024-01-11T00:27:53;52.10;;;24.88;;
7338;SDS011;33747;49.524;8.390;2024-01-11T00:30:19;53.90;;;24.63;;
7338;SDS011;33747;49.524;8.390;2024-01-11T00:32:44;58.72;;;25.83;;
7338;SDS011;33747;49.524;8.390;2024-01-11T00:35:09;60.65;;;26.42;;
7338;SDS011;33747;49.524;8.390;2024-01-11T00:37:35;57.83;;;24.25;;
7338;SDS011;33747;49.524;8.390;2024-01-11T00:40:00;51.08;;;23.33;;
7338;SDS011;33747;49.524;8.390;2024-01-11T00:42:26;50.15;;;23.55;;
7338;SDS011;33747;49.524;8.390;2024-01-11T00:44:51;50.65;;;23.80;;
7338;SDS011;33747;49.524;8.390;2024-01-11T00:47:16;62.45;;;27.35;;
7338;SDS011;33747;49.524;8.390;2024-01-11T00:49:42;57.72;;;24.17;;
7338;SDS011;33747;49.524;8.390;2024-01-11T00:52:08;56.58;;;26.15;;
7338;SDS011;33747;49.524;8.390;2024-01-11T00:54:34;57.05;;;23.88;;
7338;SDS011;33747;49.524;8.390;2024-01-11T00:57:00;56.70;;;25.60;;
7338;SDS011;33747;49.524;8.390;2024-01-11T00:59:25;54.10;;;23.98;;
7338;SDS011;33747;49.524;8.390;2024-01-11T01:01:51;60.42;;;25.20;;
7338;SDS011;33747;49.524;8.390;2024-01-11T01:04:16;62.33;;;25.60;;
7338;SDS011;33747;49.524;8.390;2024-01-11T01:06:42;54.63;;;24.27;;
7338;SDS011;33747;49.524;8.390;2024-01-11T01:09:08;52.80;;;23.60;;
7338;SDS011;33747;49.524;8.390;2024-01-11T01:11:33;55.08;;;26.63;;
7338;SDS011;33747;49.524;8.390;2024-01-11T01:13:58;62.70;;;26.90;;
7338;SDS011;33747;49.524;8.390;2024-01-11T01:16:24;56.45;;;25.58;;
7338;SDS011;33747;49.524;8.390;2024-01-11T01:18:50;60.40;;;24.67;;
7338;SDS011;33747;49.524;8.390;2024-01-11T01:21:15;56.92;;;24.33;;
7338;SDS011;33747;49.524;8.390;2024-01-11T01:23:41;61.28;;;24.60;;
7338;SDS011;33747;49.524;8.390;2024-01-11T01:26:06;55.78;;;24.65;;
7338;SDS011;33747;49.524;8.390;2024-01-11T01:28:32;52.15;;;26.02;;
7338;SDS011;33747;49.524;8.390;2024-01-11T01:30:57;60.75;;;25.83;;
7338;SDS011;33747;49.524;8.390;2024-01-11T01:33:22;52.50;;;24.75;;
7338;SDS011;33747;49.524;8.390;2024-01-11T01:35:48;54.53;;;25.00;;
7338;SDS011;33747;49.524;8.390;2024-01-11T01:38:13;57.97;;;25.10;;
7338;SDS011;33747;49.524;8.390;2024-01-11T01:40:39;55.17;;;24.00;;
7338;SDS011;33747;49.524;8.390;2024-01-11T01:43:07;68.50;;;26.80;;
7338;SDS011;33747;49.524;8.390;2024-01-11T01:45:35;63.50;;;25.33;;
7338;SDS011;33747;49.524;8.390;2024-01-11T01:48:01;62.25;;;26.95;;
7338;SDS011;33747;49.524;8.390;2024-01-11T01:50:27;64.90;;;27.33;;
7338;SDS011;33747;49.524;8.390;2024-01-11T01:52:53;65.95;;;26.05;;
7338;SDS011;33747;49.524;8.390;2024-01-11T01:55:19;60.35;;;26.77;;
7338;SDS011;33747;49.524;8.390;2024-01-11T01:57:45;66.85;;;26.20;;
7338;SDS011;33747;49.524;8.390;2024-01-11T02:00:10;60.17;;;27.17;;
7338;SDS011;33747;49.524;8.390;2024-01-11T02:02:38;69.13;;;29.30;;
7338;SDS011;33747;49.524;8.390;2024-01-11T02:05:04;69.07;;;28.45;;
7338;SDS011;33747;49.524;8.390;2024-01-11T02:07:30;64.47;;;27.88;;
7338;SDS011;33747;49.524;8.390;2024-01-11T02:09:56;57.50;;;25.35;;
7338;SDS011;33747;49.524;8.390;2024-01-11T02:12:21;64.57;;;25.42;;
7338;SDS011;33747;49.524;8.390;2024-01-11T02:14:47;56.58;;;24.42;;
7338;SDS011;33747;49.524;8.390;2024-01-11T02:17:12;59.22;;;24.17;;
7338;SDS011;33747;49.524;8.390;2024-01-11T02:19:38;58.40;;;24.42;;
7338;SDS011;33747;49.524;8.390;2024-01-11T02:22:05;59.15;;;26.23;;
7338;SDS011;33747;49.524;8.390;2024-01-11T02:24:38;59.63;;;25.02;;
7338;SDS011;33747;49.524;8.390;2024-01-11T02:27:04;54.10;;;25.88;;
7338;SDS011;33747;49.524;8.390;2024-01-11T02:29:30;59.25;;;26.20;;
7338;SDS011;33747;49.524;8.390;2024-01-11T02:31:56;64.53;;;26.80;;
7338;SDS011;33747;49.524;8.390;2024-01-11T02:34:24;61.67;;;25.65;;
7338;SDS011;33747;49.524;8.390;2024-01-11T02:36:52;57.13;;;27.77;;
7338;SDS011;33747;49.524;8.390;2024-01-11T02:39:18;64.80;;;27.60;;
7338;SDS011;33747;49.524;8.390;2024-01-11T02:41:44;59.92;;;26.88;;
7338;SDS011;33747;49.524;8.390;2024-01-11T02:44:10;55.60;;;26.75;;
7338;SDS011;33747;49.524;8.390;2024-01-11T02:46:35;56.97;;;26.17;;
7338;SDS011;33747;49.524;8.390;2024-01-11T02:49:00;60.55;;;26.55;;
7338;SDS011;33747;49.524;8.390;2024-01-11T02:51:26;55.20;;;27.48;;
7338;SDS011;33747;49.524;8.390;2024-01-11T02:53:51;57.13;;;27.00;;
7338;SDS011;33747;49.524;8.390;2024-01-11T02:56:17;62.00;;;26.05;;
7338;SDS011;33747;49.524;8.390;2024-01-11T02:58:42;62.40;;;28.27;;
7338;SDS011;33747;49.524;8.390;2024-01-11T03:01:07;65.00;;;27.23;;
7338;SDS011;33747;49.524;8.390;2024-01-11T03:03:33;56.13;;;25.40;;
7338;SDS011;33747;49.524;8.390;2024-01-11T03:05:58;60.03;;;26.35;;
7338;SDS011;33747;49.524;8.390;2024-01-11T03:08:23;61.03;;;26.23;;
7338;SDS011;33747;49.524;8.390;2024-01-11T03:10:49;55.17;;;26.85;;
7338;SDS011;33747;49.524;8.390;2024-01-11T03:13:14;64.40;;;27.15;;
7338;SDS011;33747;49.524;8.390;2024-01-11T03:15:40;61.60;;;27.30;;
7338;SDS011;33747;49.524;8.390;2024-01-11T03:18:05;66.93;;;27.85;;
7338;SDS011;33747;49.524;8.390;2024-01-11T03:20:30;73.32;;;29.17;;
7338;SDS011;33747;49.524;8.390;2024-01-11T03:22:56;59.63;;;26.48;;
7338;SDS011;33747;49.524;8.390;2024-01-11T03:25:21;62.45;;;26.45;;
7338;SDS011;33747;49.524;8.390;2024-01-11T03:27:46;66.05;;;29.00;;
7338;SDS011;33747;49.524;8.390;2024-01-11T03:30:12;62.25;;;25.45;;
7338;SDS011;33747;49.524;8.390;2024-01-11T03:32:37;55.88;;;24.70;;
7338;SDS011;33747;49.524;8.390;2024-01-11T03:35:04;57.85;;;26.65;;
7338;SDS011;33747;49.524;8.390;2024-01-11T03:37:31;59.53;;;26.15;;
7338;SDS011;33747;49.524;8.390;2024-01-11T03:39:57;59.95;;;26.15;;
7338;SDS011;33747;49.524;8.390;2024-01-11T03:42:22;59.33;;;26.38;;
7338;SDS011;33747;49.524;8.390;2024-01-11T03:44:48;57.63;;;27.23;;
7338;SDS011;33747;49.524;8.390;2024-01-11T03:47:14;58.08;;;26.17;;
7338;SDS011;33747;49.524;8.390;2024-01-11T03:49:39;55.92;;;26.17;;
7338;SDS011;33747;49.524;8.390;2024-01-11T03:52:04;60.47;;;26.90;;
7338;SDS011;33747;49.524;8.390;2024-01-11T03:54:31;62.15;;;25.33;;
7338;SDS011;33747;49.524;8.390;2024-01-11T03:56:56;60.33;;;27.02;;
7338;SDS011;33747;49.524;8.390;2024-01-11T03:59:22;64.13;;;27.10;;
7338;SDS011;33747;49.524;8.390;2024-01-11T04:01:47;63.20;;;28.70;;
7338;SDS011;33747;49.524;8.390;2024-01-11T04:04:12;66.20;;;28.13;;
7338;SDS011;33747;49.524;8.390;2024-01-11T04:06:38;62.00;;;27.73;;
7338;SDS011;33747;49.524;8.390;2024-01-11T04:09:03;59.80;;;26.98;;
7338;SDS011;33747;49.524;8.390;2024-01-11T04:11:29;58.90;;;25.52;;
7338;SDS011;33747;49.524;8.390;2024-01-11T04:13:55;68.00;;;28.08;;
7338;SDS011;33747;49.524;8.390;2024-01-11T04:16:20;61.53;;;25.48;;
7338;SDS011;33747;49.524;8.390;2024-01-11T04:18:46;56.17;;;27.52;;
7338;SDS011;33747;49.524;8.390;2024-01-11T04:21:33;61.05;;;26.60;;
7338;SDS011;33747;49.524;8.390;2024-01-11T04:23:57;54.83;;;25.30;;
7338;SDS011;33747;49.524;8.390;2024-01-11T04:26:22;54.13;;;25.90;;
7338;SDS011;33747;49.524;8.390;2024-01-11T04:28:48;64.78;;;27.05;;
7338;SDS011;33747;49.524;8.390;2024-01-11T04:31:14;65.38;;;25.92;;
7338;SDS011;33747;49.524;8.390;2024-01-11T04:33:41;61.55;;;26.90;;
7338;SDS011;33747;49.524;8.390;2024-01-11T04:36:08;60.22;;;27.92;;
7338;SDS011;33747;49.524;8.390;2024-01-11T04:38:33;70.80;;;27.83;;
7338;SDS011;33747;49.524;8.390;2024-01-11T04:40:59;60.22;;;26.55;;
7338;SDS011;33747;49.524;8.390;2024-01-11T04:43:24;66.93;;;28.67;;
7338;SDS011;33747;49.524;8.390;2024-01-11T04:45:50;62.50;;;29.08;;
7338;SDS011;33747;49.524;8.390;2024-01-11T04:48:15;73.25;;;31.33;;
7338;SDS011;33747;49.524;8.390;2024-01-11T04:50:40;59.80;;;26.73;;
7338;SDS011;33747;49.524;8.390;2024-01-11T04:53:06;67.65;;;29.05;;
7338;SDS011;33747;49.524;8.390;2024-01-11T04:55:32;64.50;;;28.20;;
7338;SDS011;33747;49.524;8.390;2024-01-11T04:57:57;60.20;;;26.33;;
7338;SDS011;33747;49.524;8.390;2024-01-11T05:00:22;59.42;;;26.90;;
7338;SDS011;33747;49.524;8.390;2024-01-11T05:02:48;68.10;;;29.60;;
7338;SDS011;33747;49.524;8.390;2024-01-11T05:05:13;66.30;;;27.33;;
7338;SDS011;33747;49.524;8.390;2024-01-11T05:07:39;62.15;;;27.60;;
7338;SDS011;33747;49.524;8.390;2024-01-11T05:10:04;59.50;;;27.75;;
7338;SDS011;33747;49.524;8.390;2024-01-11T05:12:30;63.40;;;27.60;;
7338;SDS011;33747;49.524;8.390;2024-01-11T05:14:55;60.50;;;27.15;;
7338;SDS011;33747;49.524;8.390;2024-01-11T05:17:21;65.05;;;28.50;;
7338;SDS011;33747;49.524;8.390;2024-01-11T05:19:46;64.68;;;27.88;;
7338;SDS011;33747;49.524;8.390;2024-01-11T05:22:11;67.75;;;29.30;;
7338;SDS011;33747;49.524;8.390;2024-01-11T05:24:37;65.90;;;26.65;;
7338;SDS011;33747;49.524;8.390;2024-01-11T05:27:02;67.45;;;27.45;;
7338;SDS011;33747;49.524;8.390;2024-01-11T05:29:27;62.97;;;27.23;;
7338;SDS011;33747;49.524;8.390;2024-01-11T05:31:53;57.50;;;25.58;;
7338;SDS011;33747;49.524;8.390;2024-01-11T05:34:18;58.08;;;25.75;;
7338;SDS011;33747;49.524;8.390;2024-01-11T05:36:44;59.97;;;26.80;;
7338;SDS011;33747;49.524;8.390;2024-01-11T05:39:09;58.22;;;28.02;;
7338;SDS011;33747;49.524;8.390;2024-01-11T05:41:34;61.63;;;27.13;;
7338;SDS011;33747;49.524;8.390;2024-01-11T05:44:00;68.13;;;28.60;;
7338;SDS011;33747;49.524;8.390;2024-01-11T05:46:25;60.42;;;27.95;;
7338;SDS011;33747;49.524;8.390;2024-01-11T05:48:51;58.28;;;28.70;;
7338;SDS011;33747;49.524;8.390;2024-01-11T05:51:16;66.70;;;26.15;;
7338;SDS011;33747;49.524;8.390;2024-01-11T05:53:41;64.43;;;26.92;;
7338;SDS011;33747;49.524;8.390;2024-01-11T05:56:10;61.58;;;28.10;;
7338;SDS011;33747;49.524;8.390;2024-01-11T05:58:35;67.80;;;26.73;;
7338;SDS011;33747;49.524;8.390;2024-01-11T06:01:04;64.97;;;27.40;;
7338;SDS011;33747;49.524;8.390;2024-01-11T06:03:29;61.10;;;26.67;;
7338;SDS011;33747;49.524;8.390;2024-01-11T06:05:55;65.50;;;29.77;;
7338;SDS011;33747;49.524;8.390;2024-01-11T06:08:20;65.25;;;28.00;;
7338;SDS011;33747;49.524;8.390;2024-01-11T06:10:45;62.65;;;27.63;;
7338;SDS011;33747;49.524;8.390;2024-01-11T06:13:11;65.75;;;27.95;;
7338;SDS011;33747;49.524;8.390;2024-01-11T06:15:36;70.57;;;30.92;;
7338;SDS011;33747;49.524;8.390;2024-01-11T06:18:02;64.68;;;28.00;;
7338;SDS011;33747;49.524;8.390;2024-01-11T06:20:27;64.35;;;27.52;;
7338;SDS011;33747;49.524;8.390;2024-01-11T06:22:52;59.50;;;25.60;;
7338;SDS011;33747;49.524;8.390;2024-01-11T06:25:18;61.30;;;26.58;;
7338;SDS011;33747;49.524;8.390;2024-01-11T06:27:43;62.75;;;25.98;;
7338;SDS011;33747;49.524;8.390;2024-01-11T06:30:09;71.38;;;28.65;;
7338;SDS011;33747;49.524;8.390;2024-01-11T06:32:35;59.55;;;27.25;;
7338;SDS011;33747;49.524;8.390;2024-01-11T06:35:00;62.28;;;28.27;;
7338;SDS011;33747;49.524;8.390;2024-01-11T06:37:28;72.75;;;30.92;;
7338;SDS011;33747;49.524;8.390;2024-01-11T06:39:53;64.70;;;28.13;;
7338;SDS011;33747;49.524;8.390;2024-01-11T06:42:18;75.75;;;29.90;;
7338;SDS011;33747;49.524;8.390;2024-01-11T06:44:44;71.82;;;27.60;;
7338;SDS011;33747;49.524;8.390;2024-01-11T06:47:09;73.38;;;28.58;;
7338;SDS011;33747;49.524;8.390;2024-01-11T06:49:37;66.75;;;28.67;;
7338;SDS011;33747;49.524;8.390;2024-01-11T06:52:03;63.05;;;29.25;;
7338;SDS011;33747;49.524;8.390;2024-01-11T06:54:29;68.15;;;29.65;;
7338;SDS011;33747;49.524;8.390;2024-01-11T06:56:56;65.05;;;30.42;;
7338;SDS011;33747;49.524;8.390;2024-01-11T06:59:21;73.78;;;30.75;;
7338;SDS011;33747;49.524;8.390;2024-01-11T07:01:46;68.25;;;30.15;;
7338;SDS011;33747;49.524;8.390;2024-01-11T07:04:12;72.15;;;31.80;;
7338;SDS011;33747;49.524;8.390;2024-01-11T07:06:37;67.20;;;30.60;;
7338;SDS011;33747;49.524;8.390;2024-01-11T07:09:03;68.70;;;30.60;;
7338;SDS011;33747;49.524;8.390;2024-01-11T07:11:28;70.63;;;30.52;;
7338;SDS011;33747;49.524;8.390;2024-01-11T07:13:53;75.85;;;31.85;;
7338;SDS011;33747;49.524;8.390;2024-01-11T07:16:19;80.93;;;34.40;;
7338;SDS011;33747;49.524;8.390;2024-01-11T07:18:45;70.25;;;29.83;;
7338;SDS011;33747;49.524;8.390;2024-01-11T07:21:10;69.43;;;29.10;;
7338;SDS011;33747;49.524;8.390;2024-01-11T07:23:36;73.53;;;29.65;;
7338;SDS011;33747;49.524;8.390;2024-01-11T07:26:01;68.40;;;31.50;;
7338;SDS011;33747;49.524;8.390;2024-01-11T07:28:27;73.80;;;30.60;;
7338;SDS011;33747;49.524;8.390;2024-01-11T07:30:53;68.95;;;29.42;;
7338;SDS011;33747;49.524;8.390;2024-01-11T07:33:19;67.20;;;28.73;;
7338;SDS011;33747;49.524;8.390;2024-01-11T07:35:45;71.20;;;32.28;;
7338;SDS011;33747;49.524;8.390;2024-01-11T07:38:10;70.03;;;30.70;;
7338;SDS011;33747;49.524;8.390;2024-01-11T07:40:36;65.40;;;30.02;;
7338;SDS011;33747;49.524;8.390;2024-01-11T07:43:01;73.40;;;30.17;;
7338;SDS011;33747;49.524;8.390;2024-01-11T07:45:28;70.82;;;29.80;;
7338;SDS011;33747;49.524;8.390;2024-01-11T07:47:55;60.15;;;28.85;;
7338;SDS011;33747;49.524;8.390;2024-01-11T07:50:20;62.47;;;28.60;;
7338;SDS011;33747;49.524;8.390;2024-01-11T07:52:45;80.20;;;30.48;;
7338;SDS011;33747;49.524;8.390;2024-01-11T07:55:11;72.68;;;29.33;;
7338;SDS011;33747;49.524;8.390;2024-01-11T07:57:37;65.28;;;30.65;;
7338;SDS011;33747;49.524;8.390;2024-01-11T08:00:03;72.28;;;29.67;;
7338;SDS011;33747;49.524;8.390;2024-01-11T08:02:31;70.55;;;30.60;;
7338;SDS011;33747;49.524;8.390;2024-01-11T08:04:57;64.25;;;31.52;;
7338;SDS011;33747;49.524;8.390;2024-01-11T08:07:24;76.40;;;31.02;;
7338;SDS011;33747;49.524;8.390;2024-01-11T08:09:50;76.43;;;31.40;;
7338;SDS011;33747;49.524;8.390;2024-01-11T08:12:15;72.20;;;32.30;;
7338;SDS011;33747;49.524;8.390;2024-01-11T08:14:41;75.30;;;31.52;;
7338;SDS011;33747;49.524;8.390;2024-01-11T08:17:11;66.85;;;31.90;;
7338;SDS011;33747;49.524;8.390;2024-01-11T08:19:37;74.82;;;32.33;;
7338;SDS011;33747;49.524;8.390;2024-01-11T08:22:03;75.97;;;31.20;;
7338;SDS011;33747;49.524;8.390;2024-01-11T08:24:28;68.32;;;29.63;;
7338;SDS011;33747;49.524;8.390;2024-01-11T08:26:54;79.20;;;33.47;;
7338;SDS011;33747;49.524;8.390;2024-01-11T08:29:19;73.60;;;31.55;;
7338;SDS011;33747;49.524;8.390;2024-01-11T08:31:47;66.47;;;30.35;;
7338;SDS011;33747;49.524;8.390;2024-01-11T08:34:13;73.07;;;29.90;;
7338;SDS011;33747;49.524;8.390;2024-01-11T08:36:38;66.32;;;29.17;;
7338;SDS011;33747;49.524;8.390;2024-01-11T08:39:07;71.57;;;32.05;;
7338;SDS011;33747;49.524;8.390;2024-01-11T08:41:33;67.07;;;29.83;;
7338;SDS011;33747;49.524;8.390;2024-01-11T08:44:02;71.95;;;30.98;;
7338;SDS011;33747;49.524;8.390;2024-01-11T08:46:28;70.05;;;30.20;;
7338;SDS011;33747;49.524;8.390;2024-01-11T08:48:55;70.32;;;30.40;;
7338;SDS011;33747;49.524;8.390;2024-01-11T08:51:21;73.10;;;29.17;;
7338;SDS011;33747;49.524;8.390;2024-01-11T08:53:47;71.10;;;29.88;;
7338;SDS011;33747;49.524;8.390;2024-01-11T08:56:12;73.20;;;32.40;;
7338;SDS011;33747;49.524;8.390;2024-01-11T08:58:39;67.35;;;31.45;;
7338;SDS011;33747;49.524;8.390;2024-01-11T09:01:05;66.30;;;30.58;;
7338;SDS011;33747;49.524;8.390;2024-01-11T09:03:32;75.20;;;30.45;;
7338;SDS011;33747;49.524;8.390;2024-01-11T09:05:57;74.28;;;30.52;;
7338;SDS011;33747;49.524;8.390;2024-01-11T09:08:23;67.57;;;29.67;;
7338;SDS011;33747;49.524;8.390;2024-01-11T09:10:48;66.55;;;30.05;;
7338;SDS011;33747;49.524;8.390;2024-01-11T09:13:14;68.95;;;29.33;;
7338;SDS011;33747;49.524;8.390;2024-01-11T09:15:40;63.47;;;31.80;;
7338;SDS011;33747;49.524;8.390;2024-01-11T09:18:06;70.80;;;31.00;;
7338;SDS011;33747;49.524;8.390;2024-01-11T09:20:31;71.45;;;31.75;;
7338;SDS011;33747;49.524;8.390;2024-01-11T09:22:56;70.30;;;30.95;;
7338;SDS011;33747;49.524;8.390;2024-01-11T09:25:22;67.90;;;29.88;;
7338;SDS011;33747;49.524;8.390;2024-01-11T09:27:48;69.32;;;30.95;;
7338;SDS011;33747;49.524;8.390;2024-01-11T09:30:14;68.90;;;29.42;;
7338;SDS011;33747;49.524;8.390;2024-01-11T09:32:40;76.22;;;32.83;;
7338;SDS011;33747;49.524;8.390;2024-01-11T09:35:05;82.38;;;31.65;;
7338;SDS011;33747;49.524;8.390;2024-01-11T09:37:30;75.75;;;32.60;;
7338;SDS011;33747;49.524;8.390;2024-01-11T09:39:56;64.93;;;25.70;;
7338;SDS011;33747;49.524;8.390;2024-01-11T09:42:22;70.22;;;29.85;;
7338;SDS011;33747;49.524;8.390;2024-01-11T09:44:47;67.53;;;30.02;;
7338;SDS011;33747;49.524;8.390;2024-01-11T09:47:12;73.45;;;33.35;;
7338;SDS011;33747;49.524;8.390;2024-01-11T09:49:41;76.13;;;32.22;;
7338;SDS011;33747;49.524;8.390;2024-01-11T09:52:08;79.75;;;31.70;;
7338;SDS011;33747;49.524;8.390;2024-01-11T09:54:35;74.95;;;32.08;;
7338;SDS011;33747;49.524;8.390;2024-01-11T09:57:01;72.43;;;32.28;;
7338;SDS011;33747;49.524;8.390;2024-01-11T09:59:28;82.25;;;34.70;;
7338;SDS011;33747;49.524;8.390;2024-01-11T10:01:53;70.53;;;33.90;;
7338;SDS011;33747;49.524;8.390;2024-01-11T10:04:19;69.32;;;32.88;;
7338;SDS011;33747;49.524;8.390;2024-01-11T10:06:44;75.80;;;32.95;;
7338;SDS011;33747;49.524;8.390;2024-01-11T10:09:10;72.15;;;33.35;;
7338;SDS011;33747;49.524;8.390;2024-01-11T10:11:36;65.10;;;28.85;;
7338;SDS011;33747;49.524;8.390;2024-01-11T10:14:02;84.25;;;32.67;;
7338;SDS011;33747;49.524;8.390;2024-01-11T10:16:30;71.05;;;34.40;;
7338;SDS011;33747;49.524;8.390;2024-01-11T10:18:56;73.57;;;34.28;;
7338;SDS011;33747;49.524;8.390;2024-01-11T10:21:22;66.18;;;32.58;;
7338;SDS011;33747;49.524;8.390;2024-01-11T10:23:51;69.78;;;31.13;;
7338;SDS011;33747;49.524;8.390;2024-01-11T10:26:17;75.20;;;33.47;;
7338;SDS011;33747;49.524;8.390;2024-01-11T10:28:45;68.82;;;33.20;;
7338;SDS011;33747;49.524;8.390;2024-01-11T10:31:11;72.57;;;32.95;;
7338;SDS011;33747;49.524;8.390;2024-01-11T10:33:37;68.35;;;31.38;;
7338;SDS011;33747;49.524;8.390;2024-01-11T10:36:03;63.70;;;31.38;;
7338;SDS011;33747;49.524;8.390;2024-01-11T10:38:32;68.90;;;33.13;;
7338;SDS011;33747;49.524;8.390;2024-01-11T10:41:00;77.32;;;32.50;;
7338;SDS011;33747;49.524;8.390;2024-01-11T10:43:29;67.85;;;30.27;;
7338;SDS011;33747;49.524;8.390;2024-01-11T10:45:56;68.72;;;29.80;;
7338;SDS011;33747;49.524;8.390;2024-01-11T10:48:24;69.40;;;34.15;;
7338;SDS011;33747;49.524;8.390;2024-01-11T10:50:54;67.25;;;30.83;;
7338;SDS011;33747;49.524;8.390;2024-01-11T10:58:30;61.67;;;28.83;;
7338;SDS011;33747;49.524;8.390;2024-01-11T11:00:56;66.03;;;28.95;;
7338;SDS011;33747;49.524;8.390;2024-01-11T11:03:26;68.75;;;32.00;;
7338;SDS011;33747;49.524;8.390;2024-01-11T11:05:53;67.97;;;31.80;;
7338;SDS011;33747;49.524;8.390;2024-01-11T11:08:20;70.95;;;31.02;;
7338;SDS011;33747;49.524;8.390;2024-01-11T11:10:48;70.50;;;32.13;;
7338;SDS011;33747;49.524;8.390;2024-01-11T11:13:14;67.03;;;31.75;;
7338;SDS011;33747;49.524;8.390;2024-01-11T11:15:40;81.43;;;34.25;;
7338;SDS011;33747;49.524;8.390;2024-01-11T11:18:07;74.15;;;34.58;;
7338;SDS011;33747;49.524;8.390;2024-01-11T11:20:32;69.22;;;32.20;;
7338;SDS011;33747;49.524;8.390;2024-01-11T11:23:04;67.35;;;30.70;;
7338;SDS011;33747;49.524;8.390;2024-01-11T11:25:30;64.93;;;32.15;;
7338;SDS011;33747;49.524;8.390;2024-01-11T11:27:55;74.57;;;35.58;;
7338;SDS011;33747;49.524;8.390;2024-01-11T11:30:21;76.25;;;33.53;;
7338;SDS011;33747;49.524;8.390;2024-01-11T11:32:46;72.35;;;33.25;;
7338;SDS011;33747;49.524;8.390;2024-01-11T11:35:12;68.05;;;31.77;;
7338;SDS011;33747;49.524;8.390;2024-01-11T11:37:38;74.40;;;33.70;;
7338;SDS011;33747;49.524;8.390;2024-01-11T11:40:09;74.65;;;34.25;;
7338;SDS011;33747;49.524;8.390;2024-01-11T11:42:37;69.78;;;32.60;;
7338;SDS011;33747;49.524;8.390;2024-01-11T11:45:05;73.22;;;33.33;;
7338;SDS011;33747;49.524;8.390;2024-01-11T11:47:33;67.25;;;31.80;;
7338;SDS011;33747;49.524;8.390;2024-01-11T11:50:17;68.03;;;31.95;;
7338;SDS011;33747;49.524;8.390;2024-01-11T11:52:47;73.05;;;33.42;;
7338;SDS011;33747;49.524;8.390;2024-01-11T11:55:18;61.47;;;31.35;;
7338;SDS011;33747;49.524;8.390;2024-01-11T11:57:44;63.88;;;31.27;;
7338;SDS011;33747;49.524;8.390;2024-01-11T12:00:10;75.28;;;33.45;;
7338;SDS011;33747;49.524;8.390;2024-01-11T12:02:38;62.75;;;29.63;;
7338;SDS011;33747;49.524;8.390;2024-01-11T12:05:04;66.88;;;31.83;;
7338;SDS011;33747;49.524;8.390;2024-01-11T12:07:29;72.80;;;31.88;;
7338;SDS011;33747;49.524;8.390;2024-01-11T12:09:55;69.85;;;34.63;;
7338;SDS011;33747;49.524;8.390;2024-01-11T12:12:20;69.55;;;31.95;;
7338;SDS011;33747;49.524;8.390;2024-01-11T12:14:46;71.22;;;32.72;;
7338;SDS011;33747;49.524;8.390;2024-01-11T12:17:12;67.13;;;32.03;;
7338;SDS011;33747;49.524;8.390;2024-01-11T12:19:38;65.57;;;31.58;;
7338;SDS011;33747;49.524;8.390;2024-01-11T12:22:03;69.93;;;31.10;;
7338;SDS011;33747;49.524;8.390;2024-01-11T12:24:29;75.05;;;35.47;;
7338;SDS011;33747;49.524;8.390;2024-01-11T12:26:56;64.93;;;31.58;;
7338;SDS011;33747;49.524;8.390;2024-01-11T12:29:22;59.42;;;29.98;;
7338;SDS011;33747;49.524;8.390;2024-01-11T12:31:48;60.20;;;29.13;;
7338;SDS011;33747;49.524;8.390;2024-01-11T12:34:13;66.20;;;30.73;;
7338;SDS011;33747;49.524;8.390;2024-01-11T12:36:39;64.63;;;31.50;;
7338;SDS011;33747;49.524;8.390;2024-01-11T12:39:05;64.07;;;30.33;;
7338;SDS011;33747;49.524;8.390;2024-01-11T12:41:31;60.83;;;30.20;;
7338;SDS011;33747;49.524;8.390;2024-01-11T12:43:57;64.45;;;30.13;;
7338;SDS011;33747;49.524;8.390;2024-01-11T12:46:23;67.72;;;29.75;;
7338;SDS011;33747;49.524;8.390;2024-01-11T12:48:48;61.67;;;30.10;;
7338;SDS011;33747;49.524;8.390;2024-01-11T12:51:18;69.43;;;29.60;;
7338;SDS011;33747;49.524;8.390;2024-01-11T12:53:47;63.70;;;30.40;;
7338;SDS011;33747;49.524;8.390;2024-01-11T12:56:14;64.68;;;28.95;;
7338;SDS011;33747;49.524;8.390;2024-01-11T12:58:40;67.15;;;30.85;;
7338;SDS011;33747;49.524;8.390;2024-01-11T13:01:06;74.80;;;30.40;;
7338;SDS011;33747;49.524;8.390;2024-01-11T13:03:33;66.38;;;31.60;;
7338;SDS011;33747;49.524;8.390;2024-01-11T13:05:59;62.47;;;31.25;;
7338;SDS011;33747;49.524;8.390;2024-01-11T13:08:24;70.22;;;31.10;;
7338;SDS011;33747;49.524;8.390;2024-01-11T13:10:51;66.13;;;31.45;;
7338;SDS011;33747;49.524;8.390;2024-01-11T13:13:16;61.58;;;30.83;;
7338;SDS011;33747;49.524;8.390;2024-01-11T13:15:42;62.17;;;30.13;;
7338;SDS011;33747;49.524;8.390;2024-01-11T13:18:07;62.35;;;28.85;;
7338;SDS011;33747;49.524;8.390;2024-01-11T13:20:33;59.78;;;28.55;;
7338;SDS011;33747;49.524;8.390;2024-01-11T13:23:41;62.63;;;29.10;;
7338;SDS011;33747;49.524;8.390;2024-01-11T13:25:48;58.15;;;29.73;;
7338;SDS011;33747;49.524;8.390;2024-01-11T13:28:14;62.45;;;29.75;;
7338;SDS011;33747;49.524;8.390;2024-01-11T13:30:40;60.60;;;29.75;;
7338;SDS011;33747;49.524;8.390;2024-01-11T13:33:06;59.42;;;30.70;;
7338;SDS011;33747;49.524;8.390;2024-01-11T13:35:36;60.08;;;29.73;;
7338;SDS011;33747;49.524;8.390;2024-01-11T13:38:02;60.78;;;27.30;;
7338;SDS011;33747;49.524;8.390;2024-01-11T13:40:28;56.63;;;28.75;;
7338;SDS011;33747;49.524;8.390;2024-01-11T13:42:57;60.78;;;30.00;;
7338;SDS011;33747;49.524;8.390;2024-01-11T13:45:23;61.25;;;30.05;;
7338;SDS011;33747;49.524;8.390;2024-01-11T13:47:49;51.53;;;27.50;;
7338;SDS011;33747;49.524;8.390;2024-01-11T13:50:14;58.50;;;27.52;;
7338;SDS011;33747;49.524;8.390;2024-01-11T13:52:41;54.97;;;28.80;;
7338;SDS011;33747;49.524;8.390;2024-01-11T13:55:07;57.92;;;29.33;;
7338;SDS011;33747;49.524;8.390;2024-01-11T13:57:35;52.00;;;26.85;;
7338;SDS011;33747;49.524;8.390;2024-01-11T14:00:00;56.13;;;27.40;;
7338;SDS011;33747;49.524;8.390;2024-01-11T14:02:25;60.15;;;29.88;;
7338;SDS011;33747;49.524;8.390;2024-01-11T14:04:51;51.30;;;26.33;;
7338;SDS011;33747;49.524;8.390;2024-01-11T14:07:16;61.13;;;28.95;;
7338;SDS011;33747;49.524;8.390;2024-01-11T14:09:42;51.58;;;27.05;;
7338;SDS011;33747;49.524;8.390;2024-01-11T14:12:07;56.42;;;28.30;;
7338;SDS011;33747;49.524;8.390;2024-01-11T14:14:33;65.65;;;32.10;;
7338;SDS011;33747;49.524;8.390;2024-01-11T14:16:58;65.82;;;30.23;;
7338;SDS011;33747;49.524;8.390;2024-01-11T14:19:24;54.88;;;26.52;;
7338;SDS011;33747;49.524;8.390;2024-01-11T14:21:49;54.95;;;26.77;;
7338;SDS011;33747;49.524;8.390;2024-01-11T14:24:15;54.58;;;25.27;;
7338;SDS011;33747;49.524;8.390;2024-01-11T14:26:41;56.45;;;27.45;;
7338;SDS011;33747;49.524;8.390;2024-01-11T14:29:08;56.15;;;26.92;;
7338;SDS011;33747;49.524;8.390;2024-01-11T14:31:33;54.42;;;24.88;;